sensor_id;sensor_type;location;lat;lon;timestamp;temperature;humidity
2565;DHT22;1292;48.020;7.822;2023-08-21T05:46:53;23.40;99.90
2565;DHT22;1292;48.020;7.822;2023-08-21T05:49:20;23.40;99.90
2565;DHT22;1292;48.020;7.822;2023-08-21T05:51:47;23.50;99.90
2565;DHT22;1292;48.020;7.822;2023-08-21T05:54:14;23.50;99.90
2565;DHT22;1292;48.020;7.822;2023-08-21T05:56:40;23.60;99.90
2565;DHT22;1292;48.020;7.822;2023-08-21T05:59:10;23.50;99.90
2565;DHT22;1292;48.020;7.822;2023-08-21T06:01:37;23.60;99.90
2565;DHT22;1292;48.020;7.822;2023-08-21T06:04:05;23.70;99.90
2565;DHT22;1292;48.020;7.822;2023-08-21T06:06:32;23.80;99.90
2565;DHT22;1292;48.020;7.822;2023-08-21T06:08:59;23.80;99.90
2565;DHT22;1292;48.020;7.822;2023-08-21T06:11:26;23.90;99.90
2565;DHT22;1292;48.020;7.822;2023-08-21T06:13:53;23.90;99.90
2565;DHT22;1292;48.020;7.822;2023-08-21T06:16:19;24.00;99.90
2565;DHT22;1292;48.020;7.822;2023-08-21T06:18:46;24.10;99.90
2565;DHT22;1292;48.020;7.822;2023-08-21T06:21:14;24.10;99.90
2565;DHT22;1292;48.020;7.822;2023-08-21T06:23:41;24.20;99.90
2565;DHT22;1292;48.020;7.822;2023-08-21T06:26:08;24.30;99.90
2565;DHT22;1292;48.020;7.822;2023-08-21T06:28:35;24.30;99.90
2565;DHT22;1292;48.020;7.822;2023-08-21T06:31:02;24.40;99.90
2565;DHT22;1292;48.020;7.822;2023-08-21T06:33:29;24.50;99.90
2565;DHT22;1292;48.020;7.822;2023-08-21T06:35:55;24.50;99.90
2565;DHT22;1292;48.020;7.822;2023-08-21T06:38:24;24.50;99.90
2565;DHT22;1292;48.020;7.822;2023-08-21T06:40:51;24.60;99.90
2565;DHT22;1292;48.020;7.822;2023-08-21T06:43:18;24.60;99.90
2565;DHT22;1292;48.020;7.822;2023-08-21T06:45:45;24.70;99.90
2565;DHT22;1292;48.020;7.822;2023-08-21T06:48:11;24.80;99.90
2565;DHT22;1292;48.020;7.822;2023-08-21T06:50:38;24.90;99.90
2565;DHT22;1292;48.020;7.822;2023-08-21T06:53:05;25.00;99.90
2565;DHT22;1292;48.020;7.822;2023-08-21T06:55:33;25.00;99.90
2565;DHT22;1292;48.020;7.822;2023-08-21T06:58:00;25.00;99.90
2565;DHT22;1292;48.020;7.822;2023-08-21T07:00:27;25.00;99.90
2565;DHT22;1292;48.020;7.822;2023-08-21T07:02:54;25.10;99.90
2565;DHT22;1292;48.020;7.822;2023-08-21T07:05:21;25.20;99.90
2565;DHT22;1292;48.020;7.822;2023-08-21T07:07:48;25.20;99.90
2565;DHT22;1292;48.020;7.822;2023-08-21T07:10:14;25.20;99.90
2565;DHT22;1292;48.020;7.822;2023-08-21T07:12:43;25.30;99.90
2565;DHT22;1292;48.020;7.822;2023-08-21T07:15:10;25.40;99.90
2565;DHT22;1292;48.020;7.822;2023-08-21T07:17:37;25.50;99.90
2565;DHT22;1292;48.020;7.822;2023-08-21T07:20:05;25.50;99.90
2565;DHT22;1292;48.020;7.822;2023-08-21T07:22:32;25.50;99.90
2565;DHT22;1292;48.020;7.822;2023-08-21T07:24:59;25.60;99.90
2565;DHT22;1292;48.020;7.822;2023-08-21T07:27:29;25.50;99.90
2565;DHT22;1292;48.020;7.822;2023-08-21T07:29:57;25.50;99.90
2565;DHT22;1292;48.020;7.822;2023-08-21T07:32:24;25.40;99.90
2565;DHT22;1292;48.020;7.822;2023-08-21T07:34:52;25.40;99.90
2565;DHT22;1292;48.020;7.822;2023-08-21T07:37:19;25.50;99.90
2565;DHT22;1292;48.020;7.822;2023-08-21T07:39:46;25.60;99.90
2565;DHT22;1292;48.020;7.822;2023-08-21T07:42:13;25.60;99.90
2565;DHT22;1292;48.020;7.822;2023-08-21T07:44:40;25.60;99.90
2565;DHT22;1292;48.020;7.822;2023-08-21T07:47:09;25.70;99.90
2565;DHT22;1292;48.020;7.822;2023-08-21T07:49:36;25.70;99.90
2565;DHT22;1292;48.020;7.822;2023-08-21T07:52:03;25.70;99.90
2565;DHT22;1292;48.020;7.822;2023-08-21T07:54:30;25.70;99.90
2565;DHT22;1292;48.020;7.822;2023-08-21T07:56:57;25.70;99.90
2565;DHT22;1292;48.020;7.822;2023-08-21T07:59:24;25.80;99.90
2565;DHT22;1292;48.020;7.822;2023-08-21T08:01:51;26.00;99.90
2565;DHT22;1292;48.020;7.822;2023-08-21T08:04:19;26.10;99.90
2565;DHT22;1292;48.020;7.822;2023-08-21T08:06:46;26.10;99.90
2565;DHT22;1292;48.020;7.822;2023-08-21T08:09:14;26.10;99.90
2565;DHT22;1292;48.020;7.822;2023-08-21T08:11:40;26.20;99.90
2565;DHT22;1292;48.020;7.822;2023-08-21T08:14:07;26.20;99.90
2565;DHT22;1292;48.020;7.822;2023-08-21T08:16:34;26.20;99.90
2565;DHT22;1292;48.020;7.822;2023-08-21T08:19:01;26.30;99.90
2565;DHT22;1292;48.020;7.822;2023-08-21T08:21:29;26.40;99.90
2565;DHT22;1292;48.020;7.822;2023-08-21T08:23:56;26.50;99.90
2565;DHT22;1292;48.020;7.822;2023-08-21T08:26:23;26.60;99.90
2565;DHT22;1292;48.020;7.822;2023-08-21T08:28:50;26.70;99.90
2565;DHT22;1292;48.020;7.822;2023-08-21T08:31:17;26.70;99.90
2565;DHT22;1292;48.020;7.822;2023-08-21T08:33:44;26.70;99.90
2565;DHT22;1292;48.020;7.822;2023-08-21T08:36:11;26.80;99.90
2565;DHT22;1292;48.020;7.822;2023-08-21T08:38:39;26.80;99.90
2565;DHT22;1292;48.020;7.822;2023-08-21T08:41:10;26.80;99.90
2565;DHT22;1292;48.020;7.822;2023-08-21T08:43:40;27.00;99.90
2565;DHT22;1292;48.020;7.822;2023-08-21T08:46:07;27.10;99.90
2565;DHT22;1292;48.020;7.822;2023-08-21T08:48:35;27.20;99.90
2565;DHT22;1292;48.020;7.822;2023-08-21T08:51:02;27.30;99.90
2565;DHT22;1292;48.020;7.822;2023-08-21T08:53:30;27.40;99.90
2565;DHT22;1292;48.020;7.822;2023-08-21T08:55:59;27.50;99.90
2565;DHT22;1292;48.020;7.822;2023-08-21T08:58:26;27.60;99.90
2565;DHT22;1292;48.020;7.822;2023-08-21T09:00:53;27.70;99.90
2565;DHT22;1292;48.020;7.822;2023-08-21T09:03:20;27.80;99.90
2565;DHT22;1292;48.020;7.822;2023-08-21T09:05:47;28.50;99.90
2565;DHT22;1292;48.020;7.822;2023-08-21T09:08:15;29.80;99.90
2565;DHT22;1292;48.020;7.822;2023-08-21T09:10:42;30.60;99.90
2565;DHT22;1292;48.020;7.822;2023-08-21T09:13:15;31.60;99.90
2565;DHT22;1292;48.020;7.822;2023-08-21T09:15:43;32.10;99.90
2565;DHT22;1292;48.020;7.822;2023-08-21T09:18:11;32.80;99.90
2565;DHT22;1292;48.020;7.822;2023-08-21T09:20:38;32.90;99.90
2565;DHT22;1292;48.020;7.822;2023-08-21T09:23:05;33.00;99.90
2565;DHT22;1292;48.020;7.822;2023-08-21T09:25:35;33.50;99.90
2565;DHT22;1292;48.020;7.822;2023-08-21T09:28:04;34.10;99.90
2565;DHT22;1292;48.020;7.822;2023-08-21T09:30:45;34.80;99.90
2565;DHT22;1292;48.020;7.822;2023-08-21T09:33:12;34.80;99.90
2565;DHT22;1292;48.020;7.822;2023-08-21T09:35:39;34.20;99.90
2565;DHT22;1292;48.020;7.822;2023-08-21T09:38:08;34.40;99.90
2565;DHT22;1292;48.020;7.822;2023-08-21T09:40:39;34.70;99.90
2565;DHT22;1292;48.020;7.822;2023-08-21T09:43:08;34.70;99.90
2565;DHT22;1292;48.020;7.822;2023-08-21T09:45:35;34.60;99.90
2565;DHT22;1292;48.020;7.822;2023-08-21T09:48:04;33.40;99.90
2565;DHT22;1292;48.020;7.822;2023-08-21T09:50:32;32.70;99.90
2565;DHT22;1292;48.020;7.822;2023-08-21T09:52:59;32.50;99.90
2565;DHT22;1292;48.020;7.822;2023-08-21T09:55:26;32.10;99.90
2565;DHT22;1292;48.020;7.822;2023-08-21T09:57:57;31.40;99.90
2565;DHT22;1292;48.020;7.822;2023-08-21T10:00:28;31.00;99.90
2565;DHT22;1292;48.020;7.822;2023-08-21T10:03:00;30.80;99.90
2565;DHT22;1292;48.020;7.822;2023-08-21T10:05:30;30.60;99.90
2565;DHT22;1292;48.020;7.822;2023-08-21T10:08:00;30.50;99.90
2565;DHT22;1292;48.020;7.822;2023-08-21T10:10:29;30.30;99.90
2565;DHT22;1292;48.020;7.822;2023-08-21T10:12:57;30.30;99.90
2565;DHT22;1292;48.020;7.822;2023-08-21T10:15:24;30.40;99.90
2565;DHT22;1292;48.020;7.822;2023-08-21T10:17:51;30.50;99.90
2565;DHT22;1292;48.020;7.822;2023-08-21T10:20:21;30.60;99.90
2565;DHT22;1292;48.020;7.822;2023-08-21T10:22:53;30.60;99.90
2565;DHT22;1292;48.020;7.822;2023-08-21T10:25:22;30.40;99.90
2565;DHT22;1292;48.020;7.822;2023-08-21T10:27:52;30.40;99.90
2565;DHT22;1292;48.020;7.822;2023-08-21T10:30:21;30.50;99.90
2565;DHT22;1292;48.020;7.822;2023-08-21T10:32:50;30.60;99.90
2565;DHT22;1292;48.020;7.822;2023-08-21T10:35:19;30.70;99.90
2565;DHT22;1292;48.020;7.822;2023-08-21T10:38:12;30.70;99.90
2565;DHT22;1292;48.020;7.822;2023-08-21T10:41:03;30.90;99.90
2565;DHT22;1292;48.020;7.822;2023-08-21T10:43:38;30.90;99.90
2565;DHT22;1292;48.020;7.822;2023-08-21T10:46:06;31.00;99.90
2565;DHT22;1292;48.020;7.822;2023-08-21T10:48:33;31.20;99.90
2565;DHT22;1292;48.020;7.822;2023-08-21T10:51:01;31.20;99.90
2565;DHT22;1292;48.020;7.822;2023-08-21T10:53:31;31.30;99.90
2565;DHT22;1292;48.020;7.822;2023-08-21T10:56:01;31.40;99.90
2565;DHT22;1292;48.020;7.822;2023-08-21T10:58:28;31.40;99.90
2565;DHT22;1292;48.020;7.822;2023-08-21T11:00:58;31.30;99.90
2565;DHT22;1292;48.020;7.822;2023-08-21T11:03:25;31.30;99.90
2565;DHT22;1292;48.020;7.822;2023-08-21T11:06:02;31.40;99.90
2565;DHT22;1292;48.020;7.822;2023-08-21T11:08:31;31.30;99.90
2565;DHT22;1292;48.020;7.822;2023-08-21T11:10:59;31.30;99.90
2565;DHT22;1292;48.020;7.822;2023-08-21T11:13:26;31.50;99.90
2565;DHT22;1292;48.020;7.822;2023-08-21T11:15:59;31.50;99.90
2565;DHT22;1292;48.020;7.822;2023-08-21T11:18:30;31.60;99.90
2565;DHT22;1292;48.020;7.822;2023-08-21T11:21:05;31.70;99.90
2565;DHT22;1292;48.020;7.822;2023-08-21T11:23:34;31.80;99.90
2565;DHT22;1292;48.020;7.822;2023-08-21T11:26:01;31.90;99.90
2565;DHT22;1292;48.020;7.822;2023-08-21T11:28:30;32.00;99.90
2565;DHT22;1292;48.020;7.822;2023-08-21T11:30:58;32.10;99.90
2565;DHT22;1292;48.020;7.822;2023-08-21T11:33:26;32.20;99.90
2565;DHT22;1292;48.020;7.822;2023-08-21T11:35:53;32.20;99.90
2565;DHT22;1292;48.020;7.822;2023-08-21T11:38:21;32.20;99.90
2565;DHT22;1292;48.020;7.822;2023-08-21T11:40:54;32.30;99.90
2565;DHT22;1292;48.020;7.822;2023-08-21T11:43:21;32.40;99.90
2565;DHT22;1292;48.020;7.822;2023-08-21T11:45:48;32.50;99.90
2565;DHT22;1292;48.020;7.822;2023-08-21T11:48:15;32.50;99.90
2565;DHT22;1292;48.020;7.822;2023-08-21T11:50:48;32.50;99.90
2565;DHT22;1292;48.020;7.822;2023-08-21T11:53:14;32.60;99.90
2565;DHT22;1292;48.020;7.822;2023-08-21T11:55:41;32.70;99.90
2565;DHT22;1292;48.020;7.822;2023-08-21T11:58:09;32.70;99.90
2565;DHT22;1292;48.020;7.822;2023-08-21T12:00:40;32.70;99.90
2565;DHT22;1292;48.020;7.822;2023-08-21T12:03:06;32.80;99.90
2565;DHT22;1292;48.020;7.822;2023-08-21T12:05:35;32.90;99.90
2565;DHT22;1292;48.020;7.822;2023-08-21T12:08:10;32.90;99.90
2565;DHT22;1292;48.020;7.822;2023-08-21T12:10:37;33.00;99.90
2565;DHT22;1292;48.020;7.822;2023-08-21T12:13:04;33.10;99.90
2565;DHT22;1292;48.020;7.822;2023-08-21T12:15:32;33.00;99.90
2565;DHT22;1292;48.020;7.822;2023-08-21T12:17:58;33.00;99.90
2565;DHT22;1292;48.020;7.822;2023-08-21T12:20:25;33.10;99.90
2565;DHT22;1292;48.020;7.822;2023-08-21T12:22:52;33.10;99.90
2565;DHT22;1292;48.020;7.822;2023-08-21T12:25:20;33.10;99.90
2565;DHT22;1292;48.020;7.822;2023-08-21T12:27:46;33.20;99.90
2565;DHT22;1292;48.020;7.822;2023-08-21T12:30:13;33.30;99.90
2565;DHT22;1292;48.020;7.822;2023-08-21T12:32:41;33.20;99.90
2565;DHT22;1292;48.020;7.822;2023-08-21T12:35:08;33.30;99.90
2565;DHT22;1292;48.020;7.822;2023-08-21T12:37:37;33.40;99.90
2565;DHT22;1292;48.020;7.822;2023-08-21T12:40:05;33.30;99.90
2565;DHT22;1292;48.020;7.822;2023-08-21T12:42:32;33.30;99.90
2565;DHT22;1292;48.020;7.822;2023-08-21T12:44:59;33.40;99.90
2565;DHT22;1292;48.020;7.822;2023-08-21T12:47:26;33.40;99.90
2565;DHT22;1292;48.020;7.822;2023-08-21T12:49:54;33.50;99.90
2565;DHT22;1292;48.020;7.822;2023-08-21T12:52:21;33.40;99.90
2565;DHT22;1292;48.020;7.822;2023-08-21T12:54:48;33.40;99.90
2565;DHT22;1292;48.020;7.822;2023-08-21T12:57:14;33.30;99.90
2565;DHT22;1292;48.020;7.822;2023-08-21T12:59:42;33.40;99.90
2565;DHT22;1292;48.020;7.822;2023-08-21T13:02:09;33.50;99.90
2565;DHT22;1292;48.020;7.822;2023-08-21T13:04:35;33.70;99.90
2565;DHT22;1292;48.020;7.822;2023-08-21T13:07:04;33.80;99.90
2565;DHT22;1292;48.020;7.822;2023-08-21T13:09:31;33.60;99.90
2565;DHT22;1292;48.020;7.822;2023-08-21T13:11:59;33.70;99.90
2565;DHT22;1292;48.020;7.822;2023-08-21T13:14:26;33.80;99.90
2565;DHT22;1292;48.020;7.822;2023-08-21T13:16:52;33.90;99.90
2565;DHT22;1292;48.020;7.822;2023-08-21T13:19:19;33.90;99.90
2565;DHT22;1292;48.020;7.822;2023-08-21T13:21:46;33.70;99.90
2565;DHT22;1292;48.020;7.822;2023-08-21T13:24:14;33.70;99.90
2565;DHT22;1292;48.020;7.822;2023-08-21T13:26:41;33.80;99.90
2565;DHT22;1292;48.020;7.822;2023-08-21T13:29:08;33.80;99.90
2565;DHT22;1292;48.020;7.822;2023-08-21T13:31:35;33.90;99.90
2565;DHT22;1292;48.020;7.822;2023-08-21T13:34:02;33.90;99.90
2565;DHT22;1292;48.020;7.822;2023-08-21T13:36:29;33.90;99.90
2565;DHT22;1292;48.020;7.822;2023-08-21T13:38:56;33.90;99.90
2565;DHT22;1292;48.020;7.822;2023-08-21T13:41:24;33.90;99.90
2565;DHT22;1292;48.020;7.822;2023-08-21T13:43:51;34.10;99.90
2565;DHT22;1292;48.020;7.822;2023-08-21T13:46:19;34.10;99.90
2565;DHT22;1292;48.020;7.822;2023-08-21T13:48:46;34.00;99.90
2565;DHT22;1292;48.020;7.822;2023-08-21T13:51:13;33.90;99.90
2565;DHT22;1292;48.020;7.822;2023-08-21T13:53:40;34.00;99.90
2565;DHT22;1292;48.020;7.822;2023-08-21T13:56:07;34.10;99.90
2565;DHT22;1292;48.020;7.822;2023-08-21T13:58:35;34.10;99.90
2565;DHT22;1292;48.020;7.822;2023-08-21T14:01:02;34.10;99.90
2565;DHT22;1292;48.020;7.822;2023-08-21T14:03:29;34.20;99.90
2565;DHT22;1292;48.020;7.822;2023-08-21T14:05:55;34.20;99.90
2565;DHT22;1292;48.020;7.822;2023-08-21T14:08:22;34.30;99.90
2565;DHT22;1292;48.020;7.822;2023-08-21T14:10:49;34.10;99.90
2565;DHT22;1292;48.020;7.822;2023-08-21T14:13:16;34.10;99.90
2565;DHT22;1292;48.020;7.822;2023-08-21T14:15:44;34.00;99.90
2565;DHT22;1292;48.020;7.822;2023-08-21T14:18:11;34.00;99.90
2565;DHT22;1292;48.020;7.822;2023-08-21T14:20:38;34.10;99.90
2565;DHT22;1292;48.020;7.822;2023-08-21T14:23:05;34.20;99.90
2565;DHT22;1292;48.020;7.822;2023-08-21T14:25:32;34.20;99.90
2565;DHT22;1292;48.020;7.822;2023-08-21T14:27:59;34.10;99.90
2565;DHT22;1292;48.020;7.822;2023-08-21T14:30:27;34.00;99.90
2565;DHT22;1292;48.020;7.822;2023-08-21T14:32:55;34.10;99.90
2565;DHT22;1292;48.020;7.822;2023-08-21T14:35:21;34.10;99.90
2565;DHT22;1292;48.020;7.822;2023-08-21T14:37:48;34.20;99.90
2565;DHT22;1292;48.020;7.822;2023-08-21T14:40:15;34.30;99.90
2565;DHT22;1292;48.020;7.822;2023-08-21T14:42:42;34.30;99.90
2565;DHT22;1292;48.020;7.822;2023-08-21T14:45:09;34.30;99.90
2565;DHT22;1292;48.020;7.822;2023-08-21T14:47:36;34.20;99.90
2565;DHT22;1292;48.020;7.822;2023-08-21T14:50:06;34.30;99.90
2565;DHT22;1292;48.020;7.822;2023-08-21T14:52:33;34.20;99.90
2565;DHT22;1292;48.020;7.822;2023-08-21T14:55:00;34.20;99.90
2565;DHT22;1292;48.020;7.822;2023-08-21T14:57:26;34.10;99.90
2565;DHT22;1292;48.020;7.822;2023-08-21T14:59:54;34.10;99.90
2565;DHT22;1292;48.020;7.822;2023-08-21T15:02:21;34.10;99.90
2565;DHT22;1292;48.020;7.822;2023-08-21T15:04:48;34.10;99.90
2565;DHT22;1292;48.020;7.822;2023-08-21T15:07:16;34.10;99.90
2565;DHT22;1292;48.020;7.822;2023-08-21T15:09:43;33.90;99.90
2565;DHT22;1292;48.020;7.822;2023-08-21T15:12:10;33.90;99.90
2565;DHT22;1292;48.020;7.822;2023-08-21T15:14:37;34.00;99.90
2565;DHT22;1292;48.020;7.822;2023-08-21T15:17:04;33.80;99.90
2565;DHT22;1292;48.020;7.822;2023-08-21T15:19:30;33.80;99.90
2565;DHT22;1292;48.020;7.822;2023-08-21T15:21:57;33.70;99.90
2565;DHT22;1292;48.020;7.822;2023-08-21T15:24:25;33.70;99.90
2565;DHT22;1292;48.020;7.822;2023-08-21T15:26:52;33.80;99.90
2565;DHT22;1292;48.020;7.822;2023-08-21T15:29:19;33.70;99.90
2565;DHT22;1292;48.020;7.822;2023-08-21T15:31:46;33.70;99.90
2565;DHT22;1292;48.020;7.822;2023-08-21T15:34:12;33.60;99.90
2565;DHT22;1292;48.020;7.822;2023-08-21T15:36:39;33.70;99.90
2565;DHT22;1292;48.020;7.822;2023-08-21T15:39:06;33.60;99.90
2565;DHT22;1292;48.020;7.822;2023-08-21T15:41:34;33.50;99.90
2565;DHT22;1292;48.020;7.822;2023-08-21T15:44:01;33.50;99.90
2565;DHT22;1292;48.020;7.822;2023-08-21T15:46:28;33.60;99.90
2565;DHT22;1292;48.020;7.822;2023-08-21T15:48:55;33.60;99.90
2565;DHT22;1292;48.020;7.822;2023-08-21T15:51:22;33.50;99.90
2565;DHT22;1292;48.020;7.822;2023-08-21T15:53:49;33.40;99.90
2565;DHT22;1292;48.020;7.822;2023-08-21T15:56:15;33.30;99.90
2565;DHT22;1292;48.020;7.822;2023-08-21T15:58:43;33.30;99.90
2565;DHT22;1292;48.020;7.822;2023-08-21T16:01:11;33.20;99.90
2565;DHT22;1292;48.020;7.822;2023-08-21T16:03:37;33.10;99.90
2565;DHT22;1292;48.020;7.822;2023-08-21T16:06:04;33.10;99.90
2565;DHT22;1292;48.020;7.822;2023-08-21T16:08:32;33.10;99.90
2565;DHT22;1292;48.020;7.822;2023-08-21T16:10:59;33.10;99.90
2565;DHT22;1292;48.020;7.822;2023-08-21T16:13:26;33.10;99.90
2565;DHT22;1292;48.020;7.822;2023-08-21T16:15:54;33.10;99.90
2565;DHT22;1292;48.020;7.822;2023-08-21T16:18:21;33.10;99.90
2565;DHT22;1292;48.020;7.822;2023-08-21T16:20:48;33.10;99.90
2565;DHT22;1292;48.020;7.822;2023-08-21T16:23:14;33.10;99.90
2565;DHT22;1292;48.020;7.822;2023-08-21T16:25:41;32.90;99.90
2565;DHT22;1292;48.020;7.822;2023-08-21T16:28:08;32.80;99.90
2565;DHT22;1292;48.020;7.822;2023-08-21T16:30:35;32.80;99.90
2565;DHT22;1292;48.020;7.822;2023-08-21T16:33:04;32.80;99.90
2565;DHT22;1292;48.020;7.822;2023-08-21T16:35:31;32.70;99.90
2565;DHT22;1292;48.020;7.822;2023-08-21T16:37:57;32.60;99.90
2565;DHT22;1292;48.020;7.822;2023-08-21T16:40:25;32.60;99.90
2565;DHT22;1292;48.020;7.822;2023-08-21T16:42:51;32.50;99.90
2565;DHT22;1292;48.020;7.822;2023-08-21T16:45:18;32.50;99.90
2565;DHT22;1292;48.020;7.822;2023-08-21T16:47:45;32.60;99.90
2565;DHT22;1292;48.020;7.822;2023-08-21T16:50:13;32.60;99.90
2565;DHT22;1292;48.020;7.822;2023-08-21T16:52:41;32.50;99.90
2565;DHT22;1292;48.020;7.822;2023-08-21T16:55:08;32.50;99.90
2565;DHT22;1292;48.020;7.822;2023-08-21T16:57:35;32.50;99.90
2565;DHT22;1292;48.020;7.822;2023-08-21T17:00:02;32.50;99.90
2565;DHT22;1292;48.020;7.822;2023-08-21T17:02:35;32.40;99.90
2565;DHT22;1292;48.020;7.822;2023-08-21T17:05:02;32.40;99.90
2565;DHT22;1292;48.020;7.822;2023-08-21T17:07:32;32.30;99.90
2565;DHT22;1292;48.020;7.822;2023-08-21T17:10:03;32.30;99.90
2565;DHT22;1292;48.020;7.822;2023-08-21T17:12:32;32.30;99.90
2565;DHT22;1292;48.020;7.822;2023-08-21T17:14:59;32.10;99.90
2565;DHT22;1292;48.020;7.822;2023-08-21T17:17:26;32.10;99.90
2565;DHT22;1292;48.020;7.822;2023-08-21T17:19:53;32.10;99.90
2565;DHT22;1292;48.020;7.822;2023-08-21T17:22:20;32.10;99.90
2565;DHT22;1292;48.020;7.822;2023-08-21T17:24:48;32.10;99.90
2565;DHT22;1292;48.020;7.822;2023-08-21T17:27:16;32.00;99.90
2565;DHT22;1292;48.020;7.822;2023-08-21T17:29:44;31.90;99.90
2565;DHT22;1292;48.020;7.822;2023-08-21T17:32:12;31.90;99.90
2565;DHT22;1292;48.020;7.822;2023-08-21T17:34:39;31.90;99.90
2565;DHT22;1292;48.020;7.822;2023-08-21T17:37:06;31.80;99.90
2565;DHT22;1292;48.020;7.822;2023-08-21T17:39:34;31.70;99.90
2565;DHT22;1292;48.020;7.822;2023-08-21T17:42:02;31.70;99.90
2565;DHT22;1292;48.020;7.822;2023-08-21T17:44:29;31.60;99.90
2565;DHT22;1292;48.020;7.822;2023-08-21T17:46:56;31.60;99.90
2565;DHT22;1292;48.020;7.822;2023-08-21T17:49:23;31.50;99.90
2565;DHT22;1292;48.020;7.822;2023-08-21T17:51:50;31.50;99.90
2565;DHT22;1292;48.020;7.822;2023-08-21T17:54:17;31.40;99.90
2565;DHT22;1292;48.020;7.822;2023-08-21T17:56:44;31.30;99.90
2565;DHT22;1292;48.020;7.822;2023-08-21T17:59:12;31.20;99.90
2565;DHT22;1292;48.020;7.822;2023-08-21T18:01:39;31.10;99.90
2565;DHT22;1292;48.020;7.822;2023-08-21T18:04:06;31.10;99.90
2565;DHT22;1292;48.020;7.822;2023-08-21T18:06:32;31.00;99.90
2565;DHT22;1292;48.020;7.822;2023-08-21T18:08:59;30.90;99.90
2565;DHT22;1292;48.020;7.822;2023-08-21T18:11:26;30.90;99.90
2565;DHT22;1292;48.020;7.822;2023-08-21T18:13:53;30.80;99.90
2565;DHT22;1292;48.020;7.822;2023-08-21T18:16:21;30.70;99.90
2565;DHT22;1292;48.020;7.822;2023-08-21T18:18:48;30.70;99.90
2565;DHT22;1292;48.020;7.822;2023-08-21T18:21:15;30.70;99.90
2565;DHT22;1292;48.020;7.822;2023-08-21T18:23:42;30.60;99.90
2565;DHT22;1292;48.020;7.822;2023-08-21T18:26:09;30.60;99.90
2565;DHT22;1292;48.020;7.822;2023-08-21T18:28:36;30.60;99.90
2565;DHT22;1292;48.020;7.822;2023-08-21T18:31:03;30.50;99.90
2565;DHT22;1292;48.020;7.822;2023-08-21T18:33:31;30.50;99.90
2565;DHT22;1292;48.020;7.822;2023-08-21T18:35:59;30.40;99.90
2565;DHT22;1292;48.020;7.822;2023-08-21T18:38:26;30.30;99.90
2565;DHT22;1292;48.020;7.822;2023-08-21T18:40:53;30.30;99.90
2565;DHT22;1292;48.020;7.822;2023-08-21T18:43:20;30.20;99.90
2565;DHT22;1292;48.020;7.822;2023-08-21T18:45:47;30.20;99.90
2565;DHT22;1292;48.020;7.822;2023-08-21T18:48:14;30.10;99.90
2565;DHT22;1292;48.020;7.822;2023-08-21T18:50:44;30.10;99.90
2565;DHT22;1292;48.020;7.822;2023-08-21T18:53:12;29.90;99.90
2565;DHT22;1292;48.020;7.822;2023-08-21T18:55:40;29.90;99.90
2565;DHT22;1292;48.020;7.822;2023-08-21T18:58:07;29.90;99.90
2565;DHT22;1292;48.020;7.822;2023-08-21T19:00:34;29.80;99.90
2565;DHT22;1292;48.020;7.822;2023-08-21T19:03:01;29.70;99.90
2565;DHT22;1292;48.020;7.822;2023-08-21T19:05:28;29.70;99.90
2565;DHT22;1292;48.020;7.822;2023-08-21T19:07:56;29.60;99.90
2565;DHT22;1292;48.020;7.822;2023-08-21T19:10:24;29.60;99.90
2565;DHT22;1292;48.020;7.822;2023-08-21T19:12:51;29.60;99.90
2565;DHT22;1292;48.020;7.822;2023-08-21T19:15:19;29.50;99.90
2565;DHT22;1292;48.020;7.822;2023-08-21T19:17:46;29.40;99.90
2565;DHT22;1292;48.020;7.822;2023-08-21T19:20:12;29.30;99.90
2565;DHT22;1292;48.020;7.822;2023-08-21T19:22:40;29.30;99.90
2565;DHT22;1292;48.020;7.822;2023-08-21T19:25:11;29.10;99.90
2565;DHT22;1292;48.020;7.822;2023-08-21T19:27:38;29.10;99.90
2565;DHT22;1292;48.020;7.822;2023-08-21T19:30:06;29.00;99.90
2565;DHT22;1292;48.020;7.822;2023-08-21T19:32:33;29.00;99.90
2565;DHT22;1292;48.020;7.822;2023-08-21T19:35:02;29.00;99.90
2565;DHT22;1292;48.020;7.822;2023-08-21T19:37:31;28.90;99.90
2565;DHT22;1292;48.020;7.822;2023-08-21T19:39:58;28.80;99.90
2565;DHT22;1292;48.020;7.822;2023-08-21T19:42:27;28.60;99.90
2565;DHT22;1292;48.020;7.822;2023-08-21T19:44:54;28.50;99.90
2565;DHT22;1292;48.020;7.822;2023-08-21T19:47:21;28.40;99.90
2565;DHT22;1292;48.020;7.822;2023-08-21T19:49:48;28.40;99.90
2565;DHT22;1292;48.020;7.822;2023-08-21T19:52:15;28.30;99.90
2565;DHT22;1292;48.020;7.822;2023-08-21T19:54:42;28.30;99.90
2565;DHT22;1292;48.020;7.822;2023-08-21T19:57:10;28.20;99.90
2565;DHT22;1292;48.020;7.822;2023-08-21T19:59:38;28.20;99.90
2565;DHT22;1292;48.020;7.822;2023-08-21T20:02:06;28.10;99.90
2565;DHT22;1292;48.020;7.822;2023-08-21T20:04:32;28.10;99.90
2565;DHT22;1292;48.020;7.822;2023-08-21T20:06:59;28.10;99.90
2565;DHT22;1292;48.020;7.822;2023-08-21T20:09:26;28.10;99.90
2565;DHT22;1292;48.020;7.822;2023-08-21T20:11:53;28.20;99.90
2565;DHT22;1292;48.020;7.822;2023-08-21T20:14:20;28.20;99.90
2565;DHT22;1292;48.020;7.822;2023-08-21T20:16:49;28.10;99.90
2565;DHT22;1292;48.020;7.822;2023-08-21T20:19:16;28.10;99.90
2565;DHT22;1292;48.020;7.822;2023-08-21T20:21:44;28.10;99.90
2565;DHT22;1292;48.020;7.822;2023-08-21T20:24:11;28.00;99.90
2565;DHT22;1292;48.020;7.822;2023-08-21T20:26:38;28.00;99.90
2565;DHT22;1292;48.020;7.822;2023-08-21T20:29:05;27.90;99.90
2565;DHT22;1292;48.020;7.822;2023-08-21T20:31:34;27.80;99.90
2565;DHT22;1292;48.020;7.822;2023-08-21T20:34:02;27.80;99.90
2565;DHT22;1292;48.020;7.822;2023-08-21T20:36:29;27.60;99.90
2565;DHT22;1292;48.020;7.822;2023-08-21T20:38:56;27.30;99.90
2565;DHT22;1292;48.020;7.822;2023-08-21T20:41:23;27.10;99.90
2565;DHT22;1292;48.020;7.822;2023-08-21T20:43:50;26.90;99.90
2565;DHT22;1292;48.020;7.822;2023-08-21T20:46:17;26.90;99.90
2565;DHT22;1292;48.020;7.822;2023-08-21T20:48:44;26.70;99.90
2565;DHT22;1292;48.020;7.822;2023-08-21T20:51:12;26.50;99.90
2565;DHT22;1292;48.020;7.822;2023-08-21T20:53:39;26.40;99.90
2565;DHT22;1292;48.020;7.822;2023-08-21T20:56:06;26.30;99.90
2565;DHT22;1292;48.020;7.822;2023-08-21T20:58:35;26.30;99.90
2565;DHT22;1292;48.020;7.822;2023-08-21T21:01:02;26.20;99.90
2565;DHT22;1292;48.020;7.822;2023-08-21T21:03:30;26.30;99.90
2565;DHT22;1292;48.020;7.822;2023-08-21T21:05:57;26.20;99.90
2565;DHT22;1292;48.020;7.822;2023-08-21T21:08:26;26.30;99.90
2565;DHT22;1292;48.020;7.822;2023-08-21T21:10:53;26.40;99.90
2565;DHT22;1292;48.020;7.822;2023-08-21T21:13:20;26.50;99.90
2565;DHT22;1292;48.020;7.822;2023-08-21T21:15:47;26.50;99.90
2565;DHT22;1292;48.020;7.822;2023-08-21T21:18:14;26.50;99.90
2565;DHT22;1292;48.020;7.822;2023-08-21T21:20:40;26.50;99.90
2565;DHT22;1292;48.020;7.822;2023-08-21T21:23:07;26.50;99.90
2565;DHT22;1292;48.020;7.822;2023-08-21T21:25:35;26.50;99.90
2565;DHT22;1292;48.020;7.822;2023-08-21T21:28:03;26.40;99.90
2565;DHT22;1292;48.020;7.822;2023-08-21T21:30:30;26.40;99.90
2565;DHT22;1292;48.020;7.822;2023-08-21T21:32:57;26.30;99.90
2565;DHT22;1292;48.020;7.822;2023-08-21T21:35:23;26.30;99.90
2565;DHT22;1292;48.020;7.822;2023-08-21T21:37:50;26.40;99.90
